Terminal Aerodrome Forecast
Issued by NWS Sterling, VA

Current Version | Previous Version | Graphics & Text | Print | Product List | Glossary On
Versions: 1 2 3 4 5 6 7 8 9 10 11 12 13 14
000
FTUS41 KLWX 191100
TAFMRB
TAF
KMRB 191120Z 1912/2012 02004KT P6SM SCT050
     FM191700 11005KT P6SM SCT050
     FM192200 13007KT P6SM BKN050
     FM200300 14005KT P6SM BKN030
     FM200900 00000KT 5SM BR BKN015=

USA.gov is the U.S. government's official web portal to all federal, state and local government web resources and services.